Weather at Milano Linate Airport

Public forecast

Using degrees Celsius for public forecast. Weather courtesy of forecast.io.

Current aviation weather report (METAR) for Milano Linate Airport

2022/11/30 07:50 (retrieved 16 minutes ago)

LIML 300750Z VRB01KT 3000 BR SCT030 02/02 Q1018 NOSIG

Aviation forecast (TAF) for Milano Linate Airport

2022/11/30 07:20 Ammendment (retrieved 46 minutes ago)

TAF AMD LIML 300707Z 3007/0106 VRB05KT 8000 SCT050 TEMPO 3007/3009 0800 BCFG BKN010 BECMG 0100/0102 2000 BCFG TEMPO 0102/0106 0800 FG